Time;durP1;ratioP1;P1;durP2;ratioP2;P2;SDS_P1;SDS_P2;PMS_P1;PMS_P2;Temp;Humidity;BMP_temperature;BMP_pressure;BME280_temperature;BME280_humidity;BME280_pressure;Samples;Min_cycle;Max_cycle;Signal;HPM_P1;HPM_P2
2023/03/07 05:22:33;;;;;;;3.83;2.95;;;;;;;3.77;74.46;98904.56;5089128;28;20389;-69
2023/03/07 05:24:58;;;;;;;7.13;3.85;;;;;;;3.83;73.99;98894.34;5089153;28;20443;-68
2023/03/07 05:27:24;;;;;;;6.50;2.85;;;;;;;3.91;73.27;98895.22;5087213;28;20756;-68
2023/03/07 05:29:50;;;;;;;5.50;3.38;;;;;;;3.96;73.09;98897.34;5088503;28;20040;-69
2023/03/07 05:32:15;;;;;;;6.38;3.45;;;;;;;3.91;72.68;98889.94;5089160;28;20064;-68
2023/03/07 05:34:41;;;;;;;5.60;2.67;;;;;;;3.98;72.44;98898.84;5087937;28;20036;-68
2023/03/07 05:37:07;;;;;;;10.23;3.97;;;;;;;3.97;72.90;98894.53;5088416;28;20036;-68
2023/03/07 05:39:32;;;;;;;6.07;2.78;;;;;;;4.01;72.45;98887.94;5088848;28;20119;-69
2023/03/07 05:41:58;;;;;;;4.85;2.90;;;;;;;4.10;71.40;98896.69;5095354;28;20028;-70
2023/03/07 05:44:24;;;;;;;7.10;2.95;;;;;;;4.06;71.58;98882.19;5090065;28;20142;-67
2023/03/07 05:46:49;;;;;;;6.57;3.60;;;;;;;4.04;71.52;98879.72;5085674;28;20032;-69
2023/03/07 05:49:15;;;;;;;3.90;2.60;;;;;;;4.09;71.13;98892.41;5086589;28;20068;-67
2023/03/07 05:51:40;;;;;;;4.80;2.97;;;;;;;4.09;70.91;98887.94;5087029;28;20146;-69
2023/03/07 05:54:06;;;;;;;5.93;2.58;;;;;;;4.10;71.21;98883.50;5085193;28;20109;-69
2023/03/07 05:56:32;;;;;;;4.30;2.75;;;;;;;4.11;71.58;98879.91;5085694;28;20036;-69
2023/03/07 05:58:58;;;;;;;6.80;2.97;;;;;;;4.12;71.51;98875.44;5086311;28;20039;-68
2023/03/07 06:01:24;;;;;;;6.35;3.35;;;;;;;4.14;70.99;98881.38;5086568;28;20033;-69
2023/03/07 06:03:49;;;;;;;8.48;3.72;;;;;;;4.14;71.26;98876.91;5086792;28;20047;-69
2023/03/07 06:06:15;;;;;;;5.72;3.30;;;;;;;4.18;70.62;98874.78;5087932;28;20029;-69
2023/03/07 06:08:41;;;;;;;4.45;3.03;;;;;;;4.17;70.09;98873.13;5086304;28;20047;-68
2023/03/07 06:11:07;;;;;;;5.88;3.05;;;;;;;4.12;70.41;98873.63;5086543;28;20032;-69
2023/03/07 06:13:36;;;;;;;6.45;3.05;;;;;;;4.19;69.63;98874.63;5086418;28;20393;-69
2023/03/07 06:16:01;;;;;;;4.25;2.63;;;;;;;4.22;70.25;98870.81;5086467;28;20036;-69
2023/03/07 06:18:27;;;;;;;7.30;3.20;;;;;;;4.21;70.03;98866.53;5086154;28;20490;-69
2023/03/07 06:21:02;;;;;;;4.75;2.97;;;;;;;4.15;69.75;98870.66;5086268;28;20405;-69
2023/03/07 06:23:34;;;;;;;5.38;3.00;;;;;;;4.16;70.29;98855.66;5086387;28;20123;-69
2023/03/07 06:26:01;;;;;;;4.35;3.10;;;;;;;4.27;70.27;98869.34;5086294;28;20032;-68
2023/03/07 06:28:27;;;;;;;8.10;4.00;;;;;;;4.19;69.86;98871.16;5085950;28;20024;-67
2023/03/07 06:30:53;;;;;;;4.47;2.72;;;;;;;4.17;70.86;98873.13;5086204;28;20024;-68
2023/03/07 06:33:19;;;;;;;7.07;3.25;;;;;;;4.24;70.22;98876.75;5076079;28;20037;-67
2023/03/07 06:35:45;;;;;;;5.35;2.95;;;;;;;4.24;69.37;98874.13;5072598;28;20040;-68
2023/03/07 06:38:13;;;;;;;5.07;3.33;;;;;;;4.26;69.94;98878.22;5072596;28;20370;-68
2023/03/07 06:40:39;;;;;;;6.55;3.05;;;;;;;4.33;69.41;98881.03;5072701;28;20382;-68
2023/03/07 06:43:05;;;;;;;6.90;2.92;;;;;;;4.30;69.48;98871.66;5072526;28;20102;-68
2023/03/07 06:45:30;;;;;;;8.18;3.05;;;;;;;4.33;69.52;98878.41;5072385;28;20037;-68
2023/03/07 06:47:56;;;;;;;5.53;3.05;;;;;;;4.40;68.60;98865.38;5072152;28;20100;-70
2023/03/07 06:50:22;;;;;;;5.10;3.10;;;;;;;4.38;68.70;98870.00;5072436;28;20040;-70
2023/03/07 06:52:50;;;;;;;5.22;3.28;;;;;;;4.38;68.39;98868.19;5072416;28;20138;-68
2023/03/07 06:55:17;;;;;;;5.20;3.05;;;;;;;4.52;68.41;98870.13;5073432;28;20501;-69
2023/03/07 06:57:44;;;;;;;7.95;3.10;;;;;;;4.48;67.68;98874.06;5071849;28;20040;-68
2023/03/07 07:00:11;;;;;;;7.85;3.28;;;;;;;4.50;68.24;98877.38;5071987;28;20039;-68
2023/03/07 07:02:36;;;;;;;4.07;2.75;;;;;;;4.54;67.91;98876.03;5072086;28;20059;-69
2023/03/07 07:05:03;;;;;;;4.32;2.78;;;;;;;4.55;68.32;98879.50;5072058;28;20044;-69
2023/03/07 07:07:29;;;;;;;5.78;2.83;;;;;;;4.60;67.04;98885.09;5071688;28;20103;-69
2023/03/07 07:09:55;;;;;;;7.18;3.28;;;;;;;4.62;67.43;98878.66;5072072;28;20043;-68
2023/03/07 07:12:22;;;;;;;6.15;2.95;;;;;;;4.68;67.06;98885.09;5073298;28;20029;-68
2023/03/07 07:14:48;;;;;;;4.82;2.92;;;;;;;4.66;67.62;98883.63;5071877;28;20166;-68
2023/03/07 07:17:14;;;;;;;5.95;2.83;;;;;;;4.69;67.29;98885.91;5071499;28;20509;-67
2023/03/07 07:19:39;;;;;;;5.13;3.03;;;;;;;4.67;67.73;98891.34;5073200;28;20047;-70
2023/03/07 07:22:10;;;;;;;5.13;2.83;;;;;;;4.75;67.70;98883.41;5071700;28;20032;-69
2023/03/07 07:24:37;;;;;;;5.15;2.95;;;;;;;4.76;67.68;98884.22;5073111;28;20039;-69
2023/03/07 07:27:02;;;;;;;3.65;2.65;;;;;;;4.79;67.10;98889.19;5071466;28;20024;-68
2023/03/07 07:29:28;;;;;;;5.10;3.03;;;;;;;4.84;66.61;98897.44;5071491;28;20105;-69
2023/03/07 07:31:53;;;;;;;4.10;2.88;;;;;;;4.86;66.51;98901.53;5071500;28;20040;-69
2023/03/07 07:34:19;;;;;;;5.00;2.28;;;;;;;4.86;65.63;98903.34;5071772;28;20032;-68
2023/03/07 07:36:45;;;;;;;4.43;2.65;;;;;;;4.91;65.91;98898.41;5071364;28;20033;-68
2023/03/07 07:39:11;;;;;;;4.47;3.13;;;;;;;4.88;65.99;98898.72;5071282;28;20035;-68
2023/03/07 07:41:40;;;;;;;5.78;2.80;;;;;;;4.92;66.00;98894.75;5071347;28;20029;-69
2023/03/07 07:44:06;;;;;;;3.55;2.58;;;;;;;4.95;66.10;98899.69;5071644;28;20039;-69
2023/03/07 07:46:36;;;;;;;6.43;3.10;;;;;;;4.96;65.46;98903.16;5071383;28;20036;-69
2023/03/07 07:49:02;;;;;;;6.25;3.17;;;;;;;4.95;65.37;98880.38;5070929;28;20041;-69
2023/03/07 07:51:28;;;;;;;4.75;3.20;;;;;;;5.03;64.86;98891.75;5071167;28;20039;-69
2023/03/07 07:53:54;;;;;;;3.30;2.25;;;;;;;5.08;64.83;98888.59;5071194;28;20033;-68
2023/03/07 07:56:19;;;;;;;4.63;2.72;;;;;;;5.14;64.73;98887.91;5071073;28;20134;-68
2023/03/07 07:58:45;;;;;;;3.45;2.22;;;;;;;5.14;64.27;98887.91;5072188;28;20090;-69
2023/03/07 08:01:19;;;;;;;7.90;3.08;;;;;;;5.15;64.29;98887.75;5070960;28;20497;-69
2023/03/07 08:03:45;;;;;;;4.75;3.03;;;;;;;5.20;64.62;98881.13;5071823;28;20197;-70
2023/03/07 08:06:12;;;;;;;4.07;2.50;;;;;;;5.22;64.01;98876.50;5071693;28;20572;-49
2023/03/07 08:08:38;;;;;;;5.47;3.10;;;;;;;5.30;64.43;98872.00;5071014;28;20159;-49
2023/03/07 08:11:04;;;;;;;4.43;2.47;;;;;;;5.31;64.91;98883.38;5072006;28;20105;-49
2023/03/07 08:13:29;;;;;;;5.15;2.70;;;;;;;5.30;62.88;98879.94;5072212;28;20389;-50
2023/03/07 08:15:55;;;;;;;4.57;2.22;;;;;;;5.37;63.87;98882.69;5071679;28;20029;-49
2023/03/07 08:18:20;;;;;;;4.05;2.17;;;;;;;5.33;63.58;98876.09;5070740;28;20115;-53
2023/03/07 08:20:46;;;;;;;4.75;2.85;;;;;;;5.34;62.39;98878.56;5069968;28;20542;-52
2023/03/07 08:23:11;;;;;;;5.90;3.10;;;;;;;5.34;63.15;98881.22;5071632;28;20031;-49
2023/03/07 08:25:37;;;;;;;4.88;2.97;;;;;;;5.35;63.18;98874.13;5071785;28;20498;-59
2023/03/07 08:28:04;;;;;;;4.25;2.42;;;;;;;5.33;63.01;98876.09;5071519;28;20075;-62
2023/03/07 08:30:31;;;;;;;5.18;3.17;;;;;;;5.32;63.25;98874.47;5071824;28;20044;-60
2023/03/07 08:32:57;;;;;;;6.15;3.28;;;;;;;5.33;62.30;98873.47;5071844;28;20124;-60
2023/03/07 08:35:24;;;;;;;5.78;2.88;;;;;;;5.33;63.23;98876.09;5071465;28;20544;-63
2023/03/07 08:37:54;;;;;;;3.93;2.43;;;;;;;5.35;63.39;98868.84;5071225;28;20460;-59
2023/03/07 08:40:20;;;;;;;7.43;2.80;;;;;;;5.40;64.21;98866.50;5071570;28;20093;-57
2023/03/07 08:42:45;;;;;;;5.15;2.45;;;;;;;5.38;64.14;98863.22;5070317;28;20045;-60
2023/03/07 08:45:11;;;;;;;6.30;2.88;;;;;;;5.39;63.66;98860.38;5071618;28;20036;-60
2023/03/07 08:47:37;;;;;;;4.32;2.53;;;;;;;5.37;63.68;98862.41;5071294;28;20032;-61
2023/03/07 08:50:04;;;;;;;5.15;3.05;;;;;;;5.40;63.67;98864.66;5071598;28;20493;-59
2023/03/07 08:52:29;;;;;;;3.92;2.58;;;;;;;5.48;62.13;98861.19;5070514;28;20481;-60
2023/03/07 08:54:55;;;;;;;4.00;2.67;;;;;;;5.41;62.69;98862.84;5069949;28;20044;-59
2023/03/07 08:57:20;;;;;;;8.45;2.83;;;;;;;5.46;62.98;98857.88;5071187;28;20032;-60
2023/03/07 08:59:45;;;;;;;6.72;3.00;;;;;;;5.38;62.54;98863.22;5071545;28;20040;-60
2023/03/07 09:02:11;;;;;;;3.28;2.00;;;;;;;5.34;62.38;98857.44;5070098;28;20502;-60
2023/03/07 09:04:37;;;;;;;4.28;2.53;;;;;;;5.33;62.50;98852.34;5071415;28;20455;-62
2023/03/07 09:07:03;;;;;;;4.28;2.40;;;;;;;5.36;62.88;98860.75;5071081;28;20368;-60
2023/03/07 09:09:29;;;;;;;3.53;2.60;;;;;;;5.36;63.55;98852.84;5071120;28;20109;-60
2023/03/07 09:11:54;;;;;;;4.47;2.40;;;;;;;5.37;63.66;98866.84;5071372;28;20040;-55
2023/03/07 09:14:19;;;;;;;4.28;2.72;;;;;;;5.42;63.35;98854.78;5071434;28;20040;-58
2023/03/07 09:16:45;;;;;;;5.90;3.00;;;;;;;5.39;63.65;98857.75;5071092;28;20048;-63
2023/03/07 09:19:10;;;;;;;4.22;2.65;;;;;;;5.41;63.68;98862.84;5070958;28;20119;-57
2023/03/07 09:21:36;;;;;;;4.55;2.67;;;;;;;5.45;63.81;98851.78;5070963;28;20440;-57
2023/03/07 09:24:01;;;;;;;5.85;2.65;;;;;;;5.47;63.05;98856.06;5071174;28;20127;-61
2023/03/07 09:26:26;;;;;;;7.07;3.45;;;;;;;5.49;63.40;98852.25;5071060;28;20094;-58
2023/03/07 09:28:52;;;;;;;3.78;2.75;;;;;;;5.51;64.02;98854.72;5070784;28;20075;-61
2023/03/07 09:31:17;;;;;;;4.00;2.45;;;;;;;5.49;63.24;98851.44;5071126;28;20055;-62
2023/03/07 09:33:43;;;;;;;4.22;3.15;;;;;;;5.57;63.43;98848.75;5071036;28;20397;-60
2023/03/07 09:36:11;;;;;;;5.07;2.78;;;;;;;5.67;63.54;98841.41;5071043;28;20508;-58
2023/03/07 09:38:37;;;;;;;2.25;1.98;;;;;;;5.73;61.98;98845.97;5070804;28;20044;-60
2023/03/07 09:41:12;;;;;;;6.47;2.83;;;;;;;5.71;62.17;98843.53;5071044;28;20062;-61
2023/03/07 09:43:55;;;;;;;5.15;2.80;;;;;;;5.80;61.59;98848.75;5071014;28;20478;-61
2023/03/07 09:47:41;;;;;;;7.47;2.67;;;;;;;5.86;61.14;98845.38;5028324;28;20048;-61
2023/03/07 09:50:17;;;;;;;4.25;2.53;;;;;;;5.89;60.42;98837.13;5028528;28;20034;-58
2023/03/07 09:52:43;;;;;;;4.65;2.90;;;;;;;6.02;60.68;98834.75;5063415;28;20443;-58
2023/03/07 09:55:14;;;;;;;4.47;2.58;;;;;;;5.98;59.84;98836.09;5070814;28;20044;-64
2023/03/07 09:57:50;;;;;;;4.03;2.63;;;;;;;6.13;58.87;98839.59;5070585;28;20063;-58
2023/03/07 10:00:24;;;;;;;5.70;2.63;;;;;;;6.07;57.92;98835.03;5070832;28;20499;-58
2023/03/07 10:02:56;;;;;;;3.45;2.45;;;;;;;6.12;58.63;98826.53;5070837;28;20036;-58
2023/03/07 10:05:30;;;;;;;5.85;2.60;;;;;;;6.20;58.06;98831.78;5070768;28;20101;-59
2023/03/07 10:07:56;;;;;;;3.13;2.50;;;;;;;6.20;57.58;98822.03;5071934;28;20040;-60
2023/03/07 10:10:43;;;;;;;4.72;2.35;;;;;;;6.14;58.80;98828.03;5074499;28;20516;-60
2023/03/07 10:13:33;;;;;;;3.65;2.92;;;;;;;6.09;59.58;98821.63;5074421;28;20109;-59
2023/03/07 10:16:18;;;;;;;4.47;2.75;;;;;;;6.01;60.32;98816.41;5074418;28;20056;-60
2023/03/07 10:18:46;;;;;;;5.35;2.25;;;;;;;5.92;57.29;98808.53;5074139;28;20040;-58
2023/03/07 10:21:36;;;;;;;7.20;2.80;;;;;;;5.92;57.91;98813.81;5074122;28;20127;-59
2023/03/07 10:24:26;;;;;;;3.38;2.30;;;;;;;5.76;58.13;98810.47;5074161;28;20032;-61
2023/03/07 10:27:04;;;;;;;4.53;2.85;;;;;;;5.75;58.52;98807.00;5074043;28;20103;-67
2023/03/07 10:29:41;;;;;;;;;;;;;;;5.80;58.95;98812.56;5074465;28;20089;-58
2023/03/07 10:32:31;;;;;;;3.92;2.78;;;;;;;5.82;58.60;98807.13;5073977;28;19965;-59
2023/03/07 10:35:12;;;;;;;4.70;2.60;;;;;;;5.94;58.67;98811.03;5074120;28;20067;-58
2023/03/07 10:37:51;;;;;;;3.92;2.80;;;;;;;6.05;57.21;98797.34;5073671;28;20036;-62
2023/03/07 10:40:51;;;;;;;5.13;3.05;;;;;;;6.17;57.42;98790.63;5073716;28;20044;-60
2023/03/07 10:43:24;;;;;;;6.93;2.97;;;;;;;6.35;56.08;98778.91;5040916;28;20087;-59
2023/03/07 10:45:57;;;;;;;4.10;2.72;;;;;;;6.57;56.24;98790.38;5073812;28;20040;-59
2023/03/07 10:48:24;;;;;;;4.43;2.33;;;;;;;6.69;55.58;98779.16;5073578;28;20082;-60
2023/03/07 10:50:57;;;;;;;4.38;2.50;;;;;;;6.80;53.99;98775.25;5073724;28;20071;-60
2023/03/07 10:53:29;;;;;;;4.07;2.70;;;;;;;6.80;53.22;98778.69;5073924;28;20461;-60
2023/03/07 10:56:10;;;;;;;3.55;2.38;;;;;;;6.92;54.06;98775.59;5073681;28;20066;-62
2023/03/07 10:58:35;;;;;;;4.80;2.55;;;;;;;6.69;52.25;98787.09;5073336;28;20136;-60
2023/03/07 11:01:07;;;;;;;2.92;2.50;;;;;;;6.63;52.79;98773.78;5073389;28;20123;-59
2023/03/07 11:03:33;;;;;;;5.28;2.70;;;;;;;6.71;52.30;98782.44;5073529;28;20041;-62
2023/03/07 11:05:59;;;;;;;2.85;2.20;;;;;;;6.73;52.95;98767.22;5073312;28;20129;-60
2023/03/07 11:08:33;;;;;;;4.05;2.65;;;;;;;6.67;52.05;98781.19;5073140;28;20044;-62
2023/03/07 11:11:03;;;;;;;3.95;2.60;;;;;;;6.72;51.85;98776.16;5073406;28;20033;-63
2023/03/07 11:13:30;;;;;;;2.88;2.33;;;;;;;6.74;51.94;98774.16;5073525;28;20366;-59
2023/03/07 11:16:28;;;;;;;4.25;2.38;;;;;;;6.74;52.10;98775.97;5073146;28;20434;-58
2023/03/07 11:18:54;;;;;;;3.13;2.47;;;;;;;6.78;51.95;98772.78;5038902;28;20048;-62
2023/03/07 11:21:34;;;;;;;5.40;2.60;;;;;;;6.90;52.25;98765.16;5072981;28;20040;-58
2023/03/07 11:24:27;;;;;;;2.80;2.33;;;;;;;6.85;51.69;98767.56;5073090;28;20029;-58
2023/03/07 11:26:55;;;;;;;3.72;2.55;;;;;;;6.69;51.01;98758.00;5073037;28;20097;-63
2023/03/07 11:29:21;;;;;;;4.18;2.40;;;;;;;6.73;51.43;98769.03;5072835;28;20044;-62
2023/03/07 11:32:23;;;;;;;3.80;2.50;;;;;;;6.75;51.91;98767.84;5072993;28;20032;-59
2023/03/07 11:35:01;;;;;;;4.40;2.47;;;;;;;6.79;51.73;98747.94;5072958;28;20040;-59
2023/03/07 11:37:31;;;;;;;3.78;2.50;;;;;;;6.92;51.51;98757.06;5072483;28;20044;-59
2023/03/07 11:40:22;;;;;;;3.78;2.55;;;;;;;6.78;49.82;98741.03;5072769;28;20453;-61
2023/03/07 11:43:09;;;;;;;3.60;2.33;;;;;;;6.86;50.72;98758.63;5072741;28;20028;-62
2023/03/07 11:46:02;;;;;;;3.85;2.25;;;;;;;6.85;50.77;98750.88;5072735;28;20406;-62
2023/03/07 11:48:40;;;;;;;6.00;2.30;;;;;;;6.88;51.11;98746.00;5072378;28;20044;-64
2023/03/07 11:51:33;;;;;;;6.43;2.28;;;;;;;7.01;51.21;98729.47;5072521;28;20033;-59
2023/03/07 11:54:20;;;;;;;3.60;2.20;;;;;;;6.90;50.13;98735.22;5072529;28;20462;-62
2023/03/07 11:56:58;;;;;;;3.90;2.10;;;;;;;6.77;50.01;98734.06;5072512;28;20048;-58
2023/03/07 11:59:42;;;;;;;3.42;2.38;;;;;;;6.89;50.73;98731.75;5072343;28;20123;-60
2023/03/07 12:02:27;;;;;;;3.90;2.22;;;;;;;7.08;51.46;98725.06;5072394;28;20635;-60
2023/03/07 12:05:10;;;;;;;3.97;2.47;;;;;;;7.12;50.17;98726.31;5072266;28;20043;-62
2023/03/07 12:08:02;;;;;;;5.55;2.20;;;;;;;7.25;50.19;98715.88;5071897;28;20050;-59
2023/03/07 12:10:30;;;;;;;6.95;2.35;;;;;;;7.28;49.74;98714.66;5072166;28;20036;-62
2023/03/07 12:13:11;;;;;;;3.28;2.10;;;;;;;7.37;49.63;98716.19;5070907;28;20036;-59
2023/03/07 12:15:58;;;;;;;5.32;2.60;;;;;;;7.31;49.47;98720.41;5072116;28;20555;-62
2023/03/07 12:18:46;;;;;;;4.72;3.42;;;;;;;7.20;49.39;98712.97;5071768;28;20040;-60
2023/03/07 12:21:21;;;;;;;3.20;1.92;;;;;;;7.25;50.00;98707.09;5071752;28;20040;-59
2023/03/07 12:23:52;;;;;;;3.38;2.05;;;;;;;7.25;50.45;98705.28;5071962;28;20082;-59
2023/03/07 12:26:32;;;;;;;2.85;2.15;;;;;;;7.42;51.62;98703.16;5071929;28;20138;-60
2023/03/07 12:29:30;;;;;;;2.78;2.15;;;;;;;7.43;50.29;98691.56;5071657;28;20050;-59
2023/03/07 12:32:01;;;;;;;3.10;2.03;;;;;;;7.40;50.06;98691.97;5069988;28;20033;-60
2023/03/07 12:34:42;;;;;;;4.15;2.08;;;;;;;7.27;50.25;98691.84;5071677;28;20729;-61
2023/03/07 12:37:10;;;;;;;4.07;2.22;;;;;;;7.08;50.17;98688.78;5071261;28;20103;-62
2023/03/07 12:39:52;;;;;;;2.92;1.80;;;;;;;7.12;50.12;98688.44;5070329;28;20033;-60
2023/03/07 12:42:36;;;;;;;3.17;2.22;;;;;;;7.12;50.80;98678.66;5071578;28;20032;-60
2023/03/07 12:45:22;;;;;;;3.33;2.28;;;;;;;7.11;50.06;98671.72;5071567;28;20033;-61
2023/03/07 12:47:50;;;;;;;2.55;2.03;;;;;;;7.07;50.12;98659.88;5071201;28;20037;-66
2023/03/07 12:50:28;;;;;;;3.22;2.10;;;;;;;7.10;49.39;98662.13;5071400;28;20120;-64
2023/03/07 12:53:04;;;;;;;3.60;2.72;;;;;;;7.13;50.17;98663.59;5071508;28;20469;-65
2023/03/07 12:55:49;;;;;;;3.50;1.83;;;;;;;7.27;49.09;98660.88;5070161;28;20040;-64
2023/03/07 12:58:30;;;;;;;3.72;2.13;;;;;;;7.37;49.26;98659.72;5071292;28;20035;-64
2023/03/07 13:01:01;;;;;;;2.30;1.70;;;;;;;7.44;49.29;98663.25;5071397;28;20037;-64
2023/03/07 13:03:40;;;;;;;3.30;2.08;;;;;;;7.61;48.46;98669.91;5071246;28;20047;-64
2023/03/07 13:06:13;;;;;;;3.50;2.05;;;;;;;7.49;47.78;98663.47;5071228;28;20385;-65
2023/03/07 13:08:41;;;;;;;4.07;2.00;;;;;;;7.44;47.67;98668.56;5070982;28;20036;-64
2023/03/07 13:11:16;;;;;;;3.60;2.10;;;;;;;7.88;47.66;98663.78;5071218;28;20211;-65
2023/03/07 13:13:42;;;;;;;4.45;2.10;;;;;;;8.60;47.07;98661.72;5071276;28;20032;-63
2023/03/07 13:16:10;;;;;;;4.10;1.98;;;;;;;8.78;45.01;98656.69;5071307;28;20416;-65
2023/03/07 13:18:35;;;;;;;;;;;;;;;9.42;44.12;98653.50;5071332;28;20032;-65
2023/03/07 13:21:09;;;;;;;3.78;2.13;;;;;;;9.88;42.59;98657.97;5070925;28;19916;-65
2023/03/07 13:23:35;;;;;;;4.30;2.15;;;;;;;9.95;41.83;98666.75;5071087;28;20036;-64
2023/03/07 13:26:04;;;;;;;3.90;2.30;;;;;;;10.21;41.56;98643.78;5065023;28;20028;-64
2023/03/07 13:28:33;;;;;;;2.88;2.10;;;;;;;10.66;40.26;98630.53;5070887;28;20040;-65
2023/03/07 13:31:14;;;;;;;3.85;1.98;;;;;;;10.39;40.24;98643.16;5070958;28;20028;-65
2023/03/07 13:33:39;;;;;;;3.38;2.00;;;;;;;10.60;40.73;98635.66;5071160;28;20028;-66
2023/03/07 13:36:30;;;;;;;4.47;2.50;;;;;;;11.08;40.80;98643.19;5071456;28;20127;-66
2023/03/07 13:38:56;;;;;;;3.92;2.28;;;;;;;11.51;40.00;98636.31;5070809;28;20111;-67
2023/03/07 13:41:43;;;;;;;2.67;2.00;;;;;;;12.09;38.73;98633.31;5052877;28;20561;-66
2023/03/07 13:44:39;;;;;;;3.30;1.92;;;;;;;12.26;38.33;98631.72;5074537;28;20039;-67
2023/03/07 13:47:43;;;;;;;3.72;2.00;;;;;;;12.29;37.91;98636.59;5066092;28;20479;-66
2023/03/07 13:50:50;;;;;;;3.38;1.90;;;;;;;11.88;38.09;98648.72;5075081;28;20365;-65
2023/03/07 13:53:34;;;;;;;3.05;1.92;;;;;;;11.76;38.97;98654.97;5068940;28;20494;-66
2023/03/07 13:56:07;;;;;;;2.88;1.88;;;;;;;10.90;39.50;98656.44;5074660;28;20028;-65
2023/03/07 13:58:46;;;;;;;2.80;1.73;;;;;;;10.23;40.62;98660.38;5074473;28;20512;-66
2023/03/07 14:01:48;;;;;;;3.28;2.03;;;;;;;9.74;41.39;98681.09;5074741;28;20056;-65
2023/03/07 14:04:20;;;;;;;3.10;1.95;;;;;;;8.98;42.93;98681.44;5073337;28;20123;-64
2023/03/07 14:06:58;;;;;;;3.47;2.10;;;;;;;8.43;44.35;98675.34;5074168;28;20033;-67
2023/03/07 14:09:39;;;;;;;2.90;1.90;;;;;;;8.17;44.92;98677.84;5074316;28;20060;-63
2023/03/07 14:12:30;;;;;;;3.25;1.67;;;;;;;8.00;46.18;98676.50;5074476;28;20039;-65
2023/03/07 14:15:31;;;;;;;2.50;1.60;;;;;;;7.85;46.45;98679.25;5074365;28;20047;-63
2023/03/07 14:18:14;;;;;;;3.83;1.85;;;;;;;7.70;46.86;98687.31;5073995;28;20039;-65
2023/03/07 14:20:52;;;;;;;4.13;2.05;;;;;;;7.56;47.48;98693.50;5074265;28;20036;-65
2023/03/07 14:23:20;;;;;;;4.72;2.30;;;;;;;7.51;48.04;98690.63;5074319;28;20044;-65
2023/03/07 14:25:49;;;;;;;2.95;1.98;;;;;;;7.42;48.41;98686.47;5074144;28;20032;-65
2023/03/07 14:28:25;;;;;;;4.70;1.92;;;;;;;7.46;48.23;98685.91;5073843;28;20425;-65
2023/03/07 14:30:59;;;;;;;1.85;1.50;;;;;;;7.34;49.27;98688.22;5074166;28;20039;-65
2023/03/07 14:33:34;;;;;;;2.97;2.00;;;;;;;7.38;49.22;98686.03;5074051;28;20040;-64
2023/03/07 14:36:01;;;;;;;3.85;2.00;;;;;;;7.26;48.77;98684.91;5074004;28;20044;-59
2023/03/07 14:38:27;;;;;;;2.50;1.70;;;;;;;7.22;48.79;98683.63;5073736;28;20032;-59
2023/03/07 14:41:15;;;;;;;4.20;2.30;;;;;;;7.18;49.61;98679.75;5074162;28;20069;-61
2023/03/07 14:43:41;;;;;;;2.55;1.90;;;;;;;7.13;49.22;98677.66;5073947;28;20085;-63
2023/03/07 14:46:20;;;;;;;3.17;2.22;;;;;;;7.21;49.66;98676.69;5073881;28;20492;-59
2023/03/07 14:48:59;;;;;;;3.70;2.10;;;;;;;7.15;49.90;98680.09;5073569;28;20040;-62
2023/03/07 14:51:27;;;;;;;3.28;2.13;;;;;;;7.12;49.44;98673.38;5073827;28;20044;-61
2023/03/07 14:53:54;;;;;;;3.60;2.15;;;;;;;7.16;50.46;98674.59;5073306;28;20036;-59
2023/03/07 14:56:30;;;;;;;2.55;1.80;;;;;;;7.14;50.18;98676.63;5073696;28;20033;-60
2023/03/07 14:59:07;;;;;;;3.35;2.25;;;;;;;7.19;50.67;98666.31;5073560;28;20024;-62
2023/03/07 15:01:39;;;;;;;3.50;2.13;;;;;;;7.26;50.51;98669.81;5073607;28;20025;-59
2023/03/07 15:04:29;;;;;;;2.47;1.42;;;;;;;7.23;50.58;98670.19;5073538;28;20040;-59
2023/03/07 15:06:57;;;;;;;2.25;1.60;;;;;;;7.18;49.98;98669.16;5067929;28;20135;-59
2023/03/07 15:09:23;;;;;;;2.67;1.63;;;;;;;7.18;50.35;98667.31;5073361;28;20047;-61
2023/03/07 15:12:04;;;;;;;3.03;1.80;;;;;;;7.23;50.15;98680.78;5072106;28;20486;-59
2023/03/07 15:14:39;;;;;;;2.83;1.95;;;;;;;7.22;50.39;98678.34;5073399;28;20196;-59
2023/03/07 15:17:28;;;;;;;2.75;2.00;;;;;;;7.24;50.43;98671.03;5073122;28;20219;-60
2023/03/07 15:19:59;;;;;;;2.88;1.55;;;;;;;7.27;50.50;98662.69;5073274;28;20123;-63
2023/03/07 15:22:38;;;;;;;2.60;1.80;;;;;;;7.38;50.11;98674.63;5073706;28;20394;-61
2023/03/07 15:25:05;;;;;;;3.63;2.08;;;;;;;7.23;50.41;98666.72;5073158;28;20048;-59
2023/03/07 15:27:31;;;;;;;2.67;1.88;;;;;;;7.28;51.33;98670.44;5072813;28;20393;-62
2023/03/07 15:30:01;;;;;;;4.90;1.85;;;;;;;7.30;51.26;98662.31;5072981;28;20043;-60
2023/03/07 15:32:39;;;;;;;3.35;1.85;;;;;;;7.26;51.42;98653.94;5072830;28;20481;-58
2023/03/07 15:35:08;;;;;;;3.05;1.80;;;;;;;7.36;51.54;98664.19;5073073;28;20043;-59
2023/03/07 15:37:48;;;;;;;4.78;2.50;;;;;;;7.18;51.94;98654.06;5071364;28;20051;-58
2023/03/07 15:40:19;;;;;;;2.25;1.75;;;;;;;7.26;51.47;98667.19;5072718;28;20066;-61
2023/03/07 15:42:51;;;;;;;4.82;1.88;;;;;;;7.21;51.65;98682.81;5072863;28;20130;-58
2023/03/07 15:45:32;;;;;;;2.90;2.08;;;;;;;7.23;51.59;98678.13;5072638;28;20496;-59
2023/03/07 15:48:01;;;;;;;3.70;2.03;;;;;;;7.21;52.53;98677.53;5072323;28;20036;-58
2023/03/07 15:50:28;;;;;;;3.83;1.58;;;;;;;7.23;52.49;98669.38;5072574;28;20081;-58
2023/03/07 15:53:01;;;;;;;4.80;1.98;;;;;;;7.26;52.68;98666.38;5072433;28;20508;-61
2023/03/07 15:55:27;;;;;;;3.97;1.77;;;;;;;7.22;53.04;98668.56;5072408;28;20170;-59
2023/03/07 15:57:55;;;;;;;3.97;2.03;;;;;;;7.20;52.97;98670.59;5072089;28;20099;-59
2023/03/07 16:00:30;;;;;;;6.18;2.30;;;;;;;7.21;52.75;98668.75;5072377;28;20044;-58
2023/03/07 16:03:31;;;;;;;3.92;1.83;;;;;;;7.26;52.96;98663.72;5072368;28;20079;-61
2023/03/07 16:05:58;;;;;;;2.92;2.00;;;;;;;7.22;52.57;98662.44;5029031;28;20558;-59
2023/03/07 16:08:24;;;;;;;4.07;2.63;;;;;;;7.11;53.19;98658.50;5063704;28;20493;-60
2023/03/07 16:11:10;;;;;;;3.13;2.10;;;;;;;7.14;53.21;98650.16;5072025;28;20124;-61
2023/03/07 16:13:41;;;;;;;2.33;1.50;;;;;;;7.19;52.93;98654.91;5071988;28;20045;-59
2023/03/07 16:16:12;;;;;;;3.67;2.00;;;;;;;7.16;53.82;98658.72;5071823;28;20068;-59
2023/03/07 16:18:38;;;;;;;2.95;2.03;;;;;;;7.12;53.93;98659.31;5071607;28;20107;-59
2023/03/07 16:21:04;;;;;;;3.45;2.33;;;;;;;7.06;53.85;98647.66;5071819;28;20116;-63
2023/03/07 16:23:30;;;;;;;3.00;2.00;;;;;;;7.07;53.74;98649.28;5071730;28;20036;-60
2023/03/07 16:25:57;;;;;;;3.97;2.25;;;;;;;7.07;53.24;98654.56;5071777;28;20044;-62
2023/03/07 16:28:23;;;;;;;3.13;2.15;;;;;;;7.03;53.27;98654.13;5071529;28;20044;-58
2023/03/07 16:30:48;;;;;;;3.85;2.00;;;;;;;7.04;53.13;98660.22;5071475;28;20378;-60
2023/03/07 16:33:14;;;;;;;2.88;1.92;;;;;;;7.04;53.67;98660.22;5071886;28;20111;-63
2023/03/07 16:35:40;;;;;;;4.35;2.33;;;;;;;6.92;52.66;98657.28;5071626;28;20051;-61
2023/03/07 16:38:06;;;;;;;3.10;2.35;;;;;;;6.92;52.66;98661.75;5071318;28;20052;-61
2023/03/07 16:40:32;;;;;;;2.95;2.13;;;;;;;6.84;53.07;98660.03;5071562;28;20036;-61
2023/03/07 16:42:57;;;;;;;2.75;2.10;;;;;;;6.90;53.16;98653.16;5071520;28;20033;-59
2023/03/07 16:45:30;;;;;;;2.75;2.13;;;;;;;6.92;53.60;98659.94;5071464;28;20323;-59
2023/03/07 16:47:59;;;;;;;3.40;2.03;;;;;;;6.83;52.96;98654.94;5071270;28;20587;-59
2023/03/07 16:50:29;;;;;;;2.58;1.70;;;;;;;6.80;53.44;98664.91;5071587;28;20044;-60
2023/03/07 16:52:54;;;;;;;3.17;1.95;;;;;;;6.80;53.63;98662.25;5071422;28;20040;-58
2023/03/07 16:55:20;;;;;;;2.58;1.90;;;;;;;6.83;53.78;98663.69;5071350;28;20039;-59
2023/03/07 16:57:49;;;;;;;4.57;2.30;;;;;;;6.77;53.29;98656.50;5070735;28;20047;-61
2023/03/07 17:12:04;;;;;;;3.25;2.35;;;;;;;6.71;53.07;98660.72;5150577;27;20723;-64
2023/03/07 17:14:30;;;;;;;2.72;2.33;;;;;;;6.68;53.52;98655.81;5150745;27;20046;-61
2023/03/07 17:16:55;;;;;;;3.58;2.38;;;;;;;6.64;53.51;98669.56;5150788;27;20095;-64
2023/03/07 17:19:29;;;;;;;4.63;2.08;;;;;;;6.62;54.35;98677.72;5150638;27;20450;-64
2023/03/07 17:21:57;;;;;;;3.83;2.20;;;;;;;6.65;54.07;98682.66;5150258;27;20115;-64
2023/03/07 17:24:23;;;;;;;3.42;1.73;;;;;;;6.61;54.11;98685.84;5150672;27;20045;-64
2023/03/07 17:26:49;;;;;;;4.25;2.50;;;;;;;6.58;54.02;98676.44;5150554;27;20042;-64
2023/03/07 17:29:38;;;;;;;5.25;2.50;;;;;;;6.53;54.21;98689.41;5149535;27;20039;-64
2023/03/07 17:32:04;;;;;;;3.15;2.08;;;;;;;6.58;53.73;98697.59;5148939;27;20042;-67
2023/03/07 17:34:32;;;;;;;2.80;2.05;;;;;;;6.58;54.12;98697.59;5150685;27;20513;-63
2023/03/07 17:36:59;;;;;;;2.95;2.33;;;;;;;6.55;53.75;98699.81;5150346;27;20042;-62
2023/03/07 17:39:27;;;;;;;4.22;2.25;;;;;;;6.55;54.24;98707.75;5150259;27;20073;-64